logo
Search for airport 
image banner adimage banner adimage banner ad
image banner ad

LOAU - Stockerau

Located in District Korneuburg, Austria

ICAO - LOAU, IATA -

Data provided by Airmate  

General information

Coordinates: N48°24'32" E16°11'25"
Elevation is 685 feet MSL.
 
View others Airports in Lower Austria

Operational data

Special qualification required
Current time UTC:
Current local time:
Weather at : LOXT - Tulln ( 11 km )
TAF: TAF LOXT 171415Z 1715/1724 30010KT 9999 FEW050 SCT060 PROB30 TEMPO 1715/1718 7000 SHRA FEW030TCU BKN040
View NOTAMs / SUP AIP / TFR affecting this airport [VIEW]
Communications frequencies: [VIEW]

Runways:

RWY identifierQFULength (ft)Width (ft)SurfaceLDA (ft)
07262559ASPHALT
25262559ASPHALT

Airport contact information

Address: District Korneuburg Austria

Other aviation service providers

Aviation club (not for profit)

Flugsportverein Stockerau

Flugsportverein Stockerau
flugschule@fsv2000.com+43226662475
+4322666247514

Satellite view of LOAU